sensor_id;sensor_type;location;lat;lon;timestamp;temperature;humidity
21944;DHT22;11136;48.778;9.126;2023-10-19T00:00:38;12.90;99.90
21944;DHT22;11136;48.778;9.126;2023-10-19T00:03:12;13.00;99.90
21944;DHT22;11136;48.778;9.126;2023-10-19T00:05:38;13.00;99.90
21944;DHT22;11136;48.778;9.126;2023-10-19T00:08:05;13.00;99.90
21944;DHT22;11136;48.778;9.126;2023-10-19T00:10:46;13.00;99.90
21944;DHT22;11136;48.778;9.126;2023-10-19T00:13:14;13.10;99.90
21944;DHT22;11136;48.778;9.126;2023-10-19T00:15:42;13.00;99.90
21944;DHT22;11136;48.778;9.126;2023-10-19T00:18:19;13.10;99.90
21944;DHT22;11136;48.778;9.126;2023-10-19T00:20:51;13.10;99.90
21944;DHT22;11136;48.778;9.126;2023-10-19T00:23:19;13.10;99.90
21944;DHT22;11136;48.778;9.126;2023-10-19T00:25:55;13.10;99.90
21944;DHT22;11136;48.778;9.126;2023-10-19T00:28:20;13.20;99.90
21944;DHT22;11136;48.778;9.126;2023-10-19T00:30:48;13.20;99.90
21944;DHT22;11136;48.778;9.126;2023-10-19T00:33:15;13.20;99.90
21944;DHT22;11136;48.778;9.126;2023-10-19T00:35:46;13.30;99.90
21944;DHT22;11136;48.778;9.126;2023-10-19T00:38:13;13.30;99.90
21944;DHT22;11136;48.778;9.126;2023-10-19T00:41:14;13.40;99.90
21944;DHT22;11136;48.778;9.126;2023-10-19T00:43:45;13.40;99.90
21944;DHT22;11136;48.778;9.126;2023-10-19T00:46:18;13.50;99.90
21944;DHT22;11136;48.778;9.126;2023-10-19T00:48:59;13.50;99.90
21944;DHT22;11136;48.778;9.126;2023-10-19T00:51:27;13.50;99.90
21944;DHT22;11136;48.778;9.126;2023-10-19T00:54:09;13.60;99.90
21944;DHT22;11136;48.778;9.126;2023-10-19T00:56:41;13.60;99.90
21944;DHT22;11136;48.778;9.126;2023-10-19T00:59:12;13.60;99.90
21944;DHT22;11136;48.778;9.126;2023-10-19T01:01:41;13.70;99.90
21944;DHT22;11136;48.778;9.126;2023-10-19T01:04:11;13.70;99.90
21944;DHT22;11136;48.778;9.126;2023-10-19T01:06:47;13.80;99.90
21944;DHT22;11136;48.778;9.126;2023-10-19T01:09:33;13.80;99.90
21944;DHT22;11136;48.778;9.126;2023-10-19T01:12:02;13.80;99.90
21944;DHT22;11136;48.778;9.126;2023-10-19T01:17:40;13.90;99.90
21944;DHT22;11136;48.778;9.126;2023-10-19T01:20:16;13.90;99.90
21944;DHT22;11136;48.778;9.126;2023-10-19T01:22:57;13.90;99.90
21944;DHT22;11136;48.778;9.126;2023-10-19T01:28:09;14.00;99.90
21944;DHT22;11136;48.778;9.126;2023-10-19T01:30:36;14.00;99.90
21944;DHT22;11136;48.778;9.126;2023-10-19T01:33:03;14.00;99.90
21944;DHT22;11136;48.778;9.126;2023-10-19T01:35:30;14.00;99.90
21944;DHT22;11136;48.778;9.126;2023-10-19T01:38:15;14.00;99.90
21944;DHT22;11136;48.778;9.126;2023-10-19T01:40:41;14.00;99.90
21944;DHT22;11136;48.778;9.126;2023-10-19T01:43:12;14.00;99.90
21944;DHT22;11136;48.778;9.126;2023-10-19T01:45:47;14.00;99.90
21944;DHT22;11136;48.778;9.126;2023-10-19T01:48:13;14.10;99.90
21944;DHT22;11136;48.778;9.126;2023-10-19T01:50:40;14.10;99.90
21944;DHT22;11136;48.778;9.126;2023-10-19T01:53:07;14.10;99.90
21944;DHT22;11136;48.778;9.126;2023-10-19T01:55:42;14.10;99.90
21944;DHT22;11136;48.778;9.126;2023-10-19T01:58:09;14.10;99.90
21944;DHT22;11136;48.778;9.126;2023-10-19T02:00:35;14.10;99.90
21944;DHT22;11136;48.778;9.126;2023-10-19T02:03:07;14.10;99.90
21944;DHT22;11136;48.778;9.126;2023-10-19T02:05:33;14.10;99.90
21944;DHT22;11136;48.778;9.126;2023-10-19T02:08:06;14.20;99.90
21944;DHT22;11136;48.778;9.126;2023-10-19T02:10:33;14.20;99.90
21944;DHT22;11136;48.778;9.126;2023-10-19T02:12:59;14.20;99.90
21944;DHT22;11136;48.778;9.126;2023-10-19T02:15:24;14.20;99.90
21944;DHT22;11136;48.778;9.126;2023-10-19T02:17:50;14.20;99.90
21944;DHT22;11136;48.778;9.126;2023-10-19T02:20:15;14.30;99.90
21944;DHT22;11136;48.778;9.126;2023-10-19T02:22:43;14.30;99.90
21944;DHT22;11136;48.778;9.126;2023-10-19T02:25:08;14.20;99.90
21944;DHT22;11136;48.778;9.126;2023-10-19T02:27:36;14.30;99.90
21944;DHT22;11136;48.778;9.126;2023-10-19T02:30:02;14.30;99.90
21944;DHT22;11136;48.778;9.126;2023-10-19T02:32:28;14.30;99.90
21944;DHT22;11136;48.778;9.126;2023-10-19T02:34:54;14.30;99.90
21944;DHT22;11136;48.778;9.126;2023-10-19T02:37:19;14.30;99.90
21944;DHT22;11136;48.778;9.126;2023-10-19T02:39:45;14.30;99.90
21944;DHT22;11136;48.778;9.126;2023-10-19T02:42:11;14.30;99.90
21944;DHT22;11136;48.778;9.126;2023-10-19T02:44:37;14.30;99.90
21944;DHT22;11136;48.778;9.126;2023-10-19T02:47:03;14.30;99.90
21944;DHT22;11136;48.778;9.126;2023-10-19T02:49:34;14.30;99.90
21944;DHT22;11136;48.778;9.126;2023-10-19T02:52:03;14.30;99.90
21944;DHT22;11136;48.778;9.126;2023-10-19T02:54:30;14.20;99.90
21944;DHT22;11136;48.778;9.126;2023-10-19T02:56:58;14.20;99.90
21944;DHT22;11136;48.778;9.126;2023-10-19T02:59:26;14.30;99.90
21944;DHT22;11136;48.778;9.126;2023-10-19T03:01:59;14.20;99.90
21944;DHT22;11136;48.778;9.126;2023-10-19T03:04:33;14.20;99.90
21944;DHT22;11136;48.778;9.126;2023-10-19T03:07:02;14.30;99.90
21944;DHT22;11136;48.778;9.126;2023-10-19T03:09:29;14.20;99.90
21944;DHT22;11136;48.778;9.126;2023-10-19T03:11:56;14.20;99.90
21944;DHT22;11136;48.778;9.126;2023-10-19T03:14:26;14.20;99.90
21944;DHT22;11136;48.778;9.126;2023-10-19T03:16:52;14.20;99.90
21944;DHT22;11136;48.778;9.126;2023-10-19T03:19:20;14.20;99.90
21944;DHT22;11136;48.778;9.126;2023-10-19T03:21:46;14.10;99.90
21944;DHT22;11136;48.778;9.126;2023-10-19T03:24:15;14.10;99.90
21944;DHT22;11136;48.778;9.126;2023-10-19T03:26:49;14.10;99.90
21944;DHT22;11136;48.778;9.126;2023-10-19T03:29:15;14.20;99.90
21944;DHT22;11136;48.778;9.126;2023-10-19T03:31:48;14.10;99.90
21944;DHT22;11136;48.778;9.126;2023-10-19T03:34:14;14.10;99.90
21944;DHT22;11136;48.778;9.126;2023-10-19T03:36:43;14.10;99.90
21944;DHT22;11136;48.778;9.126;2023-10-19T03:39:09;14.10;99.90
21944;DHT22;11136;48.778;9.126;2023-10-19T03:41:39;14.10;99.90
21944;DHT22;11136;48.778;9.126;2023-10-19T03:44:09;14.10;99.90
21944;DHT22;11136;48.778;9.126;2023-10-19T03:46:42;14.00;99.90
21944;DHT22;11136;48.778;9.126;2023-10-19T03:49:22;14.30;99.90
21944;DHT22;11136;48.778;9.126;2023-10-19T03:51:49;14.00;99.90
21944;DHT22;11136;48.778;9.126;2023-10-19T03:54:25;14.00;99.90
21944;DHT22;11136;48.778;9.126;2023-10-19T03:56:52;14.00;99.90
21944;DHT22;11136;48.778;9.126;2023-10-19T03:59:18;14.00;99.90
21944;DHT22;11136;48.778;9.126;2023-10-19T04:01:45;14.00;99.90
21944;DHT22;11136;48.778;9.126;2023-10-19T04:04:11;14.00;99.90
21944;DHT22;11136;48.778;9.126;2023-10-19T04:06:37;14.00;99.90
21944;DHT22;11136;48.778;9.126;2023-10-19T04:09:03;13.90;99.90
21944;DHT22;11136;48.778;9.126;2023-10-19T04:11:32;14.00;99.90
21944;DHT22;11136;48.778;9.126;2023-10-19T04:14:10;13.90;99.90
21944;DHT22;11136;48.778;9.126;2023-10-19T04:16:36;13.90;99.90
21944;DHT22;11136;48.778;9.126;2023-10-19T04:19:02;13.90;99.90
21944;DHT22;11136;48.778;9.126;2023-10-19T04:21:30;14.10;99.90
21944;DHT22;11136;48.778;9.126;2023-10-19T04:23:55;13.90;99.90
21944;DHT22;11136;48.778;9.126;2023-10-19T04:26:22;13.90;99.90
21944;DHT22;11136;48.778;9.126;2023-10-19T04:28:50;14.00;99.90
21944;DHT22;11136;48.778;9.126;2023-10-19T04:31:18;13.90;99.90
21944;DHT22;11136;48.778;9.126;2023-10-19T04:33:45;13.90;99.90
21944;DHT22;11136;48.778;9.126;2023-10-19T04:36:14;13.90;99.90
21944;DHT22;11136;48.778;9.126;2023-10-19T04:38:40;13.90;99.90
21944;DHT22;11136;48.778;9.126;2023-10-19T04:41:07;13.90;99.90
21944;DHT22;11136;48.778;9.126;2023-10-19T04:43:37;13.90;99.90
21944;DHT22;11136;48.778;9.126;2023-10-19T04:46:08;13.90;99.90
21944;DHT22;11136;48.778;9.126;2023-10-19T04:48:39;13.90;99.90
21944;DHT22;11136;48.778;9.126;2023-10-19T04:51:06;13.80;99.90
21944;DHT22;11136;48.778;9.126;2023-10-19T04:53:32;13.90;99.90
21944;DHT22;11136;48.778;9.126;2023-10-19T04:55:58;13.90;99.90
21944;DHT22;11136;48.778;9.126;2023-10-19T04:58:29;13.90;99.90
21944;DHT22;11136;48.778;9.126;2023-10-19T05:00:54;13.80;99.90
21944;DHT22;11136;48.778;9.126;2023-10-19T05:03:21;13.80;99.90
21944;DHT22;11136;48.778;9.126;2023-10-19T05:05:46;13.80;99.90
21944;DHT22;11136;48.778;9.126;2023-10-19T05:08:12;13.90;99.90
21944;DHT22;11136;48.778;9.126;2023-10-19T05:10:38;13.80;99.90
21944;DHT22;11136;48.778;9.126;2023-10-19T05:13:04;13.80;99.90
21944;DHT22;11136;48.778;9.126;2023-10-19T05:15:30;13.80;99.90
21944;DHT22;11136;48.778;9.126;2023-10-19T05:17:56;13.80;99.90
21944;DHT22;11136;48.778;9.126;2023-10-19T05:20:22;13.80;99.90
21944;DHT22;11136;48.778;9.126;2023-10-19T05:22:49;13.80;99.90
21944;DHT22;11136;48.778;9.126;2023-10-19T05:25:14;13.80;99.90
21944;DHT22;11136;48.778;9.126;2023-10-19T05:27:40;13.80;99.90
21944;DHT22;11136;48.778;9.126;2023-10-19T05:30:08;13.80;99.90
21944;DHT22;11136;48.778;9.126;2023-10-19T05:32:36;13.80;99.90
21944;DHT22;11136;48.778;9.126;2023-10-19T05:35:02;13.70;99.90
21944;DHT22;11136;48.778;9.126;2023-10-19T05:37:30;13.70;99.90
21944;DHT22;11136;48.778;9.126;2023-10-19T05:39:56;13.70;99.90
21944;DHT22;11136;48.778;9.126;2023-10-19T05:42:22;13.70;99.90
21944;DHT22;11136;48.778;9.126;2023-10-19T05:44:48;13.80;99.90
21944;DHT22;11136;48.778;9.126;2023-10-19T05:47:15;13.70;99.90
21944;DHT22;11136;48.778;9.126;2023-10-19T05:49:47;13.70;99.90
21944;DHT22;11136;48.778;9.126;2023-10-19T05:52:14;13.70;99.90
21944;DHT22;11136;48.778;9.126;2023-10-19T05:54:46;13.70;99.90
21944;DHT22;11136;48.778;9.126;2023-10-19T05:57:12;13.70;99.90
21944;DHT22;11136;48.778;9.126;2023-10-19T05:59:37;13.70;99.90
21944;DHT22;11136;48.778;9.126;2023-10-19T06:02:04;13.60;99.90
21944;DHT22;11136;48.778;9.126;2023-10-19T06:04:33;13.60;99.90
21944;DHT22;11136;48.778;9.126;2023-10-19T06:06:58;13.80;99.90
21944;DHT22;11136;48.778;9.126;2023-10-19T06:09:24;13.60;99.90
21944;DHT22;11136;48.778;9.126;2023-10-19T06:11:56;13.60;99.90
21944;DHT22;11136;48.778;9.126;2023-10-19T06:14:24;13.60;99.90
21944;DHT22;11136;48.778;9.126;2023-10-19T06:16:51;13.60;99.90
21944;DHT22;11136;48.778;9.126;2023-10-19T06:19:18;13.80;99.90
21944;DHT22;11136;48.778;9.126;2023-10-19T06:21:43;13.60;99.90
21944;DHT22;11136;48.778;9.126;2023-10-19T06:24:09;13.60;99.90
21944;DHT22;11136;48.778;9.126;2023-10-19T06:26:41;13.60;99.90
21944;DHT22;11136;48.778;9.126;2023-10-19T06:29:06;13.60;99.90
21944;DHT22;11136;48.778;9.126;2023-10-19T06:31:32;13.60;99.90
21944;DHT22;11136;48.778;9.126;2023-10-19T06:33:58;13.70;99.90
21944;DHT22;11136;48.778;9.126;2023-10-19T06:36:24;13.70;99.90
21944;DHT22;11136;48.778;9.126;2023-10-19T06:38:50;13.70;99.90
21944;DHT22;11136;48.778;9.126;2023-10-19T06:41:16;13.70;99.90
21944;DHT22;11136;48.778;9.126;2023-10-19T06:43:43;13.70;99.90
21944;DHT22;11136;48.778;9.126;2023-10-19T06:46:09;13.70;99.90
21944;DHT22;11136;48.778;9.126;2023-10-19T06:48:38;13.70;99.90
21944;DHT22;11136;48.778;9.126;2023-10-19T06:51:04;13.70;99.90
21944;DHT22;11136;48.778;9.126;2023-10-19T06:53:30;13.70;99.90
21944;DHT22;11136;48.778;9.126;2023-10-19T06:55:57;13.70;99.90
21944;DHT22;11136;48.778;9.126;2023-10-19T06:58:25;13.80;99.90
21944;DHT22;11136;48.778;9.126;2023-10-19T07:00:53;13.80;99.90
21944;DHT22;11136;48.778;9.126;2023-10-19T07:03:23;13.80;99.90
21944;DHT22;11136;48.778;9.126;2023-10-19T07:05:48;13.80;99.90
21944;DHT22;11136;48.778;9.126;2023-10-19T07:08:15;13.80;99.90
21944;DHT22;11136;48.778;9.126;2023-10-19T07:10:41;13.80;99.90
21944;DHT22;11136;48.778;9.126;2023-10-19T07:13:08;13.80;99.90
21944;DHT22;11136;48.778;9.126;2023-10-19T07:15:34;13.80;99.90
21944;DHT22;11136;48.778;9.126;2023-10-19T07:17:59;13.80;99.90
21944;DHT22;11136;48.778;9.126;2023-10-19T07:20:25;13.80;99.90
21944;DHT22;11136;48.778;9.126;2023-10-19T07:22:53;13.80;99.90
21944;DHT22;11136;48.778;9.126;2023-10-19T07:25:19;13.90;99.90
21944;DHT22;11136;48.778;9.126;2023-10-19T07:27:49;13.90;99.90
21944;DHT22;11136;48.778;9.126;2023-10-19T07:30:18;13.90;99.90
21944;DHT22;11136;48.778;9.126;2023-10-19T07:32:50;14.10;99.90
21944;DHT22;11136;48.778;9.126;2023-10-19T07:35:26;14.00;99.90
21944;DHT22;11136;48.778;9.126;2023-10-19T07:37:52;14.00;99.90
21944;DHT22;11136;48.778;9.126;2023-10-19T07:40:18;14.00;99.90
21944;DHT22;11136;48.778;9.126;2023-10-19T07:42:45;14.00;99.90
21944;DHT22;11136;48.778;9.126;2023-10-19T07:45:12;14.00;99.90
21944;DHT22;11136;48.778;9.126;2023-10-19T07:47:40;14.10;99.90
21944;DHT22;11136;48.778;9.126;2023-10-19T07:50:11;14.10;99.90
21944;DHT22;11136;48.778;9.126;2023-10-19T07:52:45;14.20;99.90
21944;DHT22;11136;48.778;9.126;2023-10-19T07:55:13;14.20;99.90
21944;DHT22;11136;48.778;9.126;2023-10-19T07:57:40;14.20;99.90
21944;DHT22;11136;48.778;9.126;2023-10-19T08:00:06;14.20;99.90
21944;DHT22;11136;48.778;9.126;2023-10-19T08:02:36;14.30;99.90
21944;DHT22;11136;48.778;9.126;2023-10-19T08:05:04;14.40;99.90
21944;DHT22;11136;48.778;9.126;2023-10-19T08:07:32;14.40;99.90
21944;DHT22;11136;48.778;9.126;2023-10-19T08:10:03;14.50;99.90
21944;DHT22;11136;48.778;9.126;2023-10-19T08:12:31;14.60;99.90
21944;DHT22;11136;48.778;9.126;2023-10-19T08:14:58;14.60;99.90
21944;DHT22;11136;48.778;9.126;2023-10-19T08:17:24;14.70;99.90
21944;DHT22;11136;48.778;9.126;2023-10-19T08:19:50;14.70;99.90
21944;DHT22;11136;48.778;9.126;2023-10-19T08:22:16;14.80;99.90
21944;DHT22;11136;48.778;9.126;2023-10-19T08:24:41;14.90;99.90
21944;DHT22;11136;48.778;9.126;2023-10-19T08:27:12;15.10;99.90
21944;DHT22;11136;48.778;9.126;2023-10-19T08:29:38;15.20;99.90
21944;DHT22;11136;48.778;9.126;2023-10-19T08:32:05;15.30;99.90
21944;DHT22;11136;48.778;9.126;2023-10-19T08:34:35;15.40;99.90
21944;DHT22;11136;48.778;9.126;2023-10-19T08:37:02;15.50;99.90
21944;DHT22;11136;48.778;9.126;2023-10-19T08:39:28;15.60;99.90
21944;DHT22;11136;48.778;9.126;2023-10-19T08:41:53;15.70;99.90
21944;DHT22;11136;48.778;9.126;2023-10-19T08:44:21;15.80;99.90
21944;DHT22;11136;48.778;9.126;2023-10-19T08:46:47;15.90;99.90
21944;DHT22;11136;48.778;9.126;2023-10-19T08:49:13;15.90;99.90
21944;DHT22;11136;48.778;9.126;2023-10-19T08:51:40;16.00;99.90
21944;DHT22;11136;48.778;9.126;2023-10-19T08:54:11;16.00;99.90
21944;DHT22;11136;48.778;9.126;2023-10-19T08:56:38;16.10;99.90
21944;DHT22;11136;48.778;9.126;2023-10-19T08:59:04;16.20;99.90
21944;DHT22;11136;48.778;9.126;2023-10-19T09:01:32;16.30;99.90
21944;DHT22;11136;48.778;9.126;2023-10-19T09:04:01;16.30;99.90
21944;DHT22;11136;48.778;9.126;2023-10-19T09:06:27;16.40;99.90
21944;DHT22;11136;48.778;9.126;2023-10-19T09:08:55;16.50;99.90
21944;DHT22;11136;48.778;9.126;2023-10-19T09:11:21;16.50;99.90
21944;DHT22;11136;48.778;9.126;2023-10-19T09:13:51;16.60;99.90
21944;DHT22;11136;48.778;9.126;2023-10-19T09:16:19;16.70;99.90
21944;DHT22;11136;48.778;9.126;2023-10-19T09:18:49;16.90;99.90
21944;DHT22;11136;48.778;9.126;2023-10-19T09:21:18;16.80;99.90
21944;DHT22;11136;48.778;9.126;2023-10-19T09:23:51;16.90;99.90
21944;DHT22;11136;48.778;9.126;2023-10-19T09:26:17;16.90;99.90
21944;DHT22;11136;48.778;9.126;2023-10-19T09:28:46;17.00;99.90
21944;DHT22;11136;48.778;9.126;2023-10-19T09:31:14;17.10;99.90
21944;DHT22;11136;48.778;9.126;2023-10-19T09:33:45;17.20;99.90
21944;DHT22;11136;48.778;9.126;2023-10-19T09:36:12;17.20;99.90
21944;DHT22;11136;48.778;9.126;2023-10-19T09:38:39;17.20;99.90
21944;DHT22;11136;48.778;9.126;2023-10-19T09:41:08;17.20;99.90
21944;DHT22;11136;48.778;9.126;2023-10-19T09:43:47;17.30;99.90
21944;DHT22;11136;48.778;9.126;2023-10-19T09:46:37;17.30;99.90
21944;DHT22;11136;48.778;9.126;2023-10-19T09:49:04;17.30;99.90
21944;DHT22;11136;48.778;9.126;2023-10-19T09:51:33;17.30;99.90
21944;DHT22;11136;48.778;9.126;2023-10-19T09:54:11;17.30;99.90
21944;DHT22;11136;48.778;9.126;2023-10-19T09:56:43;17.30;99.90
21944;DHT22;11136;48.778;9.126;2023-10-19T09:59:23;17.30;99.90
21944;DHT22;11136;48.778;9.126;2023-10-19T10:02:07;17.30;99.90
21944;DHT22;11136;48.778;9.126;2023-10-19T10:04:34;17.30;99.90
21944;DHT22;11136;48.778;9.126;2023-10-19T10:07:04;17.30;99.90
21944;DHT22;11136;48.778;9.126;2023-10-19T10:09:38;17.30;99.90
21944;DHT22;11136;48.778;9.126;2023-10-19T10:17:21;17.40;99.90
21944;DHT22;11136;48.778;9.126;2023-10-19T10:19:48;17.30;99.90
21944;DHT22;11136;48.778;9.126;2023-10-19T10:22:14;17.30;99.90
21944;DHT22;11136;48.778;9.126;2023-10-19T10:24:42;17.20;99.90
21944;DHT22;11136;48.778;9.126;2023-10-19T10:27:08;17.20;99.90
21944;DHT22;11136;48.778;9.126;2023-10-19T10:29:35;17.40;99.90
21944;DHT22;11136;48.778;9.126;2023-10-19T10:32:01;17.50;99.90
21944;DHT22;11136;48.778;9.126;2023-10-19T10:37:07;17.30;99.90
21944;DHT22;11136;48.778;9.126;2023-10-19T10:39:34;17.30;99.90
21944;DHT22;11136;48.778;9.126;2023-10-19T10:42:07;17.30;99.90
21944;DHT22;11136;48.778;9.126;2023-10-19T10:44:43;17.30;99.90
21944;DHT22;11136;48.778;9.126;2023-10-19T10:47:16;17.30;99.90
21944;DHT22;11136;48.778;9.126;2023-10-19T10:49:53;17.20;99.90
21944;DHT22;11136;48.778;9.126;2023-10-19T10:52:34;17.30;99.90
21944;DHT22;11136;48.778;9.126;2023-10-19T10:55:14;17.30;99.90
21944;DHT22;11136;48.778;9.126;2023-10-19T10:57:41;17.30;99.90
21944;DHT22;11136;48.778;9.126;2023-10-19T11:00:11;17.30;99.90
21944;DHT22;11136;48.778;9.126;2023-10-19T11:02:45;17.30;99.90
21944;DHT22;11136;48.778;9.126;2023-10-19T11:05:16;17.30;99.90
21944;DHT22;11136;48.778;9.126;2023-10-19T11:08:06;17.30;99.90
21944;DHT22;11136;48.778;9.126;2023-10-19T11:10:33;17.30;99.90
21944;DHT22;11136;48.778;9.126;2023-10-19T11:13:06;17.30;99.90
21944;DHT22;11136;48.778;9.126;2023-10-19T11:15:36;17.30;99.90
21944;DHT22;11136;48.778;9.126;2023-10-19T11:18:05;17.30;99.90
21944;DHT22;11136;48.778;9.126;2023-10-19T11:20:33;17.30;99.90
21944;DHT22;11136;48.778;9.126;2023-10-19T11:22:59;17.30;99.90
21944;DHT22;11136;48.778;9.126;2023-10-19T11:25:30;17.30;99.90
21944;DHT22;11136;48.778;9.126;2023-10-19T11:27:56;17.20;99.90
21944;DHT22;11136;48.778;9.126;2023-10-19T11:30:23;17.20;99.90
21944;DHT22;11136;48.778;9.126;2023-10-19T11:32:50;17.20;99.90
21944;DHT22;11136;48.778;9.126;2023-10-19T11:35:19;17.10;99.90
21944;DHT22;11136;48.778;9.126;2023-10-19T11:37:57;17.10;99.90
21944;DHT22;11136;48.778;9.126;2023-10-19T11:40:24;17.10;99.90
21944;DHT22;11136;48.778;9.126;2023-10-19T11:42:51;17.00;99.90
21944;DHT22;11136;48.778;9.126;2023-10-19T11:45:17;17.00;99.90
21944;DHT22;11136;48.778;9.126;2023-10-19T11:47:44;16.90;99.90
21944;DHT22;11136;48.778;9.126;2023-10-19T11:50:11;16.90;99.90
21944;DHT22;11136;48.778;9.126;2023-10-19T11:52:40;16.90;99.90
21944;DHT22;11136;48.778;9.126;2023-10-19T11:55:08;16.90;99.90
21944;DHT22;11136;48.778;9.126;2023-10-19T11:57:34;16.90;99.90
21944;DHT22;11136;48.778;9.126;2023-10-19T12:00:03;16.90;99.90
21944;DHT22;11136;48.778;9.126;2023-10-19T12:02:35;16.90;99.90
21944;DHT22;11136;48.778;9.126;2023-10-19T12:05:01;17.10;99.90
21944;DHT22;11136;48.778;9.126;2023-10-19T12:07:28;16.90;99.90
21944;DHT22;11136;48.778;9.126;2023-10-19T12:09:54;16.90;99.90
21944;DHT22;11136;48.778;9.126;2023-10-19T12:12:21;17.10;99.90
21944;DHT22;11136;48.778;9.126;2023-10-19T12:14:47;16.90;99.90
21944;DHT22;11136;48.778;9.126;2023-10-19T12:17:13;16.90;99.90
21944;DHT22;11136;48.778;9.126;2023-10-19T12:19:38;16.90;99.90
21944;DHT22;11136;48.778;9.126;2023-10-19T12:22:04;16.90;99.90
21944;DHT22;11136;48.778;9.126;2023-10-19T12:24:29;16.90;99.90
21944;DHT22;11136;48.778;9.126;2023-10-19T12:26:55;16.90;99.90
21944;DHT22;11136;48.778;9.126;2023-10-19T12:29:21;17.00;99.90
21944;DHT22;11136;48.778;9.126;2023-10-19T12:31:47;16.90;99.90
21944;DHT22;11136;48.778;9.126;2023-10-19T12:34:13;16.90;99.90
21944;DHT22;11136;48.778;9.126;2023-10-19T12:36:41;16.90;99.90
21944;DHT22;11136;48.778;9.126;2023-10-19T12:39:06;17.00;99.90
21944;DHT22;11136;48.778;9.126;2023-10-19T12:41:33;16.90;99.90
21944;DHT22;11136;48.778;9.126;2023-10-19T12:43:58;16.90;99.90
21944;DHT22;11136;48.778;9.126;2023-10-19T12:46:26;16.90;99.90
21944;DHT22;11136;48.778;9.126;2023-10-19T12:48:56;16.90;99.90
21944;DHT22;11136;48.778;9.126;2023-10-19T12:51:23;16.90;99.90
21944;DHT22;11136;48.778;9.126;2023-10-19T12:53:54;16.90;99.90
21944;DHT22;11136;48.778;9.126;2023-10-19T12:56:23;16.90;99.90
21944;DHT22;11136;48.778;9.126;2023-10-19T12:58:54;16.90;99.90
21944;DHT22;11136;48.778;9.126;2023-10-19T13:01:20;16.80;99.90
21944;DHT22;11136;48.778;9.126;2023-10-19T13:03:47;16.90;99.90
21944;DHT22;11136;48.778;9.126;2023-10-19T13:06:13;16.90;99.90
21944;DHT22;11136;48.778;9.126;2023-10-19T13:08:39;16.90;99.90
21944;DHT22;11136;48.778;9.126;2023-10-19T13:11:06;16.90;99.90
21944;DHT22;11136;48.778;9.126;2023-10-19T13:13:32;16.80;99.90
21944;DHT22;11136;48.778;9.126;2023-10-19T13:15:59;16.80;99.90
21944;DHT22;11136;48.778;9.126;2023-10-19T13:18:25;16.90;99.90
21944;DHT22;11136;48.778;9.126;2023-10-19T13:20:54;16.80;99.90
21944;DHT22;11136;48.778;9.126;2023-10-19T13:23:20;16.80;99.90
21944;DHT22;11136;48.778;9.126;2023-10-19T13:25:51;16.90;99.90
21944;DHT22;11136;48.778;9.126;2023-10-19T13:28:27;16.90;99.90
21944;DHT22;11136;48.778;9.126;2023-10-19T13:30:53;16.90;99.90
21944;DHT22;11136;48.778;9.126;2023-10-19T13:33:20;17.10;99.90
21944;DHT22;11136;48.778;9.126;2023-10-19T13:35:52;16.90;99.90
21944;DHT22;11136;48.778;9.126;2023-10-19T13:38:19;16.90;99.90
21944;DHT22;11136;48.778;9.126;2023-10-19T13:40:49;16.90;99.90
21944;DHT22;11136;48.778;9.126;2023-10-19T13:43:16;16.90;99.90
21944;DHT22;11136;48.778;9.126;2023-10-19T13:45:44;16.90;99.90
21944;DHT22;11136;48.778;9.126;2023-10-19T13:48:11;16.90;99.90
21944;DHT22;11136;48.778;9.126;2023-10-19T13:50:47;16.90;99.90
21944;DHT22;11136;48.778;9.126;2023-10-19T13:53:18;16.90;99.90
21944;DHT22;11136;48.778;9.126;2023-10-19T13:55:50;16.90;99.90
21944;DHT22;11136;48.778;9.126;2023-10-19T13:58:15;17.10;99.90
21944;DHT22;11136;48.778;9.126;2023-10-19T14:00:42;16.90;99.90
21944;DHT22;11136;48.778;9.126;2023-10-19T14:03:11;16.90;99.90
21944;DHT22;11136;48.778;9.126;2023-10-19T14:05:45;16.80;99.90
21944;DHT22;11136;48.778;9.126;2023-10-19T14:08:15;16.90;99.90
21944;DHT22;11136;48.778;9.126;2023-10-19T14:10:41;16.80;99.90
21944;DHT22;11136;48.778;9.126;2023-10-19T14:13:08;16.90;99.90
21944;DHT22;11136;48.778;9.126;2023-10-19T14:15:37;16.80;99.90
21944;DHT22;11136;48.778;9.126;2023-10-19T14:18:03;16.90;99.90
21944;DHT22;11136;48.778;9.126;2023-10-19T14:20:30;16.90;99.90
21944;DHT22;11136;48.778;9.126;2023-10-19T14:22:57;16.90;99.90
21944;DHT22;11136;48.778;9.126;2023-10-19T14:25:23;16.80;99.90
21944;DHT22;11136;48.778;9.126;2023-10-19T14:27:51;16.80;99.90
21944;DHT22;11136;48.778;9.126;2023-10-19T14:30:27;16.90;99.90
21944;DHT22;11136;48.778;9.126;2023-10-19T14:32:56;16.80;99.90
21944;DHT22;11136;48.778;9.126;2023-10-19T14:35:24;16.80;99.90
21944;DHT22;11136;48.778;9.126;2023-10-19T14:37:52;16.80;99.90
21944;DHT22;11136;48.778;9.126;2023-10-19T14:40:25;16.80;99.90
21944;DHT22;11136;48.778;9.126;2023-10-19T14:42:56;16.80;99.90
21944;DHT22;11136;48.778;9.126;2023-10-19T14:45:26;16.80;99.90
21944;DHT22;11136;48.778;9.126;2023-10-19T14:47:55;16.80;99.90
21944;DHT22;11136;48.778;9.126;2023-10-19T14:50:22;16.80;99.90
21944;DHT22;11136;48.778;9.126;2023-10-19T14:52:51;16.80;99.90
21944;DHT22;11136;48.778;9.126;2023-10-19T14:55:18;16.80;99.90
21944;DHT22;11136;48.778;9.126;2023-10-19T14:57:47;16.80;99.90
21944;DHT22;11136;48.778;9.126;2023-10-19T15:00:15;16.90;99.90
21944;DHT22;11136;48.778;9.126;2023-10-19T15:02:52;16.80;99.90
21944;DHT22;11136;48.778;9.126;2023-10-19T15:05:21;16.90;99.90
21944;DHT22;11136;48.778;9.126;2023-10-19T15:07:48;16.80;99.90
21944;DHT22;11136;48.778;9.126;2023-10-19T15:10:25;16.80;99.90
21944;DHT22;11136;48.778;9.126;2023-10-19T15:12:52;16.80;99.90
21944;DHT22;11136;48.778;9.126;2023-10-19T15:15:20;16.80;99.90
21944;DHT22;11136;48.778;9.126;2023-10-19T15:17:47;16.80;99.90
21944;DHT22;11136;48.778;9.126;2023-10-19T15:20:14;16.80;99.90
21944;DHT22;11136;48.778;9.126;2023-10-19T15:22:40;16.90;99.90
21944;DHT22;11136;48.778;9.126;2023-10-19T15:25:06;16.90;99.90
21944;DHT22;11136;48.778;9.126;2023-10-19T15:27:43;16.90;99.90
21944;DHT22;11136;48.778;9.126;2023-10-19T15:30:10;16.90;99.90
21944;DHT22;11136;48.778;9.126;2023-10-19T15:32:41;16.80;99.90
21944;DHT22;11136;48.778;9.126;2023-10-19T15:35:09;16.90;99.90
21944;DHT22;11136;48.778;9.126;2023-10-19T15:37:36;16.80;99.90
21944;DHT22;11136;48.778;9.126;2023-10-19T15:40:03;16.90;99.90
21944;DHT22;11136;48.778;9.126;2023-10-19T15:42:31;16.90;99.90
21944;DHT22;11136;48.778;9.126;2023-10-19T15:45:00;16.80;99.90
21944;DHT22;11136;48.778;9.126;2023-10-19T15:47:26;16.80;99.90
21944;DHT22;11136;48.778;9.126;2023-10-19T15:49:55;16.90;99.90
21944;DHT22;11136;48.778;9.126;2023-10-19T15:52:25;16.80;99.90